Witch Creek (222) Station Data

Red Flag Warning: No
Fire Weather Zone: 250
SDGE Region: Ramona
Lat/Lon: 33.073/-116.738

Observations

Time Wind Speed/Gust Temp(F) RH Fuel Moist Fuel Temp(F) Dewpt(F) Tmax(F) Tmin(F) Accum Precip 10-min Precip SL Press(mb)
5/24 8:30am 66 3 G 8 70° 39% - - 44° 70.5° 52.3° - - 1011.0
5/24 8:20am 331 1 G 3 69° 41% - - 44° 70.2° 52.3° - - 1011.0
5/24 8:10am 3 4 G 8 68° 44% - - 45° 68.4° 52.3° - - 1011.0
5/24 8:00am 19 4 G 7 65° 49% - - 45° 66.7° 52.3° - - 1012.0
5/24 7:50am 38 3 G 4 63° 52% - - 45° 65.9° 52.3° - - 1012.0
5/24 7:40am 248 3 G 8 64° 50% - - 45° 65.9° 52.3° - - 1012.0
5/24 7:30am 235 5 G 8 64° 51% - - 46° 65.9° 52.3° - - 1012.0
5/24 7:20am 213 2 G 7 65° 52% - - 47° 65.9° 52.3° - - 1011.0
5/24 7:10am 53 1 G 2 63° 52% - - 45° 63.8° 52.3° - - 1011.0
5/24 7:00am 135 0 G 2 61° 58% - - 46° 61.9° 52.3° - - 1012.0
5/24 6:50am 253 1 G 2 60° 55% - - 44° 61.9° 52.3° - - 1012.0
5/24 6:40am 44 1 G 2 58° 56% - - 42° 61.9° 52.3° - - 1012.0
5/24 6:30am 101 1 G 4 56° 60% - - 42° 61.9° 52.3° - - 1012.0
5/24 6:20am 36 1 G 2 55° 61% - - 42° 61.9° 52.3° - - 1013.0
5/24 6:10am 65 0 G 1 57° 55% - - 41° 61.9° 52.3° - - 1012.0
5/24 6:00am 284 1 G 2 58° 54% - - 41° 61.9° 52.3° - - 1012.0
5/24 5:50am 289 1 G 3 57° 55% - - 42° 61.9° 52.3° - - 1012.0
5/24 5:40am 19 3 G 5 57° 56% - - 42° 61.9° 52.3° - - 1012.0
5/24 5:30am 326 1 G 2 57° 58% - - 42° 61.9° 52.3° - - 1012.0
5/24 5:20am 35 4 G 8 56° 60% - - 43° 61.9° 52.3° - - 1012.0
5/24 5:10am 37 1 G 4 54° 73% - - 45° 61.9° 52.3° - - 1013.0
5/24 5:00am 45 3 G 4 53° 73% - - 45° 61.9° 52.3° - - 1013.0
5/24 4:50am 10 1 G 2 54° 72% - - 45° 61.9° 53.6° - - 1013.0
5/24 4:40am 128 1 G 2 55° 73% - - 46° 61.9° 54° - - 1013.0
5/24 4:30am 23 0 G 1 55° 73% - - 46° 61.9° 54.2° - - 1013.0
5/24 4:20am 133 0 G 1 55° 74% - - 46° 61.9° 54.2° - - 1013.0
5/24 4:10am 150 0 G 1 55° 75% - - 47° 61.9° 54.5° - - 1013.0
5/24 4:00am 66 1 G 2 55° 76% - - 48° 61.9° 54.5° - - 1014.0
5/24 3:50am 32 1 G 2 56° 73% - - 47° 61.9° 54.6° - - 1013.0
5/24 3:40am 70 0 G 1 56° 74% - - 48° 61.9° 55.1° - - 1013.0
5/24 3:30am 54 1 G 3 56° 75% - - 48° 61.9° 55.1° - - 1013.0
5/24 3:20am 213 0 G 1 57° 73% - - 48° 61.9° 56.5° - - 1013.0
5/24 3:10am 67 2 G 4 57° 68% - - 47° 61.9° 56.7° - - 1013.0
5/24 3:00am 49 2 G 3 58° 72% - - 49° 61.9° 56.7° - - 1013.0
5/24 2:50am 65 1 G 2 57° 74% - - 49° 61.9° 56.7° - - 1013.0
5/24 2:40am 134 0 G 2 58° 72% - - 49° 61.9° 56.7° - - 1013.0
5/24 2:30am 113 1 G 2 59° 69% - - 49° 61.9° 56.7° - - 1013.0
5/24 2:20am 118 1 G 2 60° 66% - - 49° 61.9° 56.7° - - 1013.0
5/24 2:10am 46 2 G 3 60° 69% - - 49° 61.9° 56.7° - - 1013.0
5/24 2:00am 36 1 G 3 59° 69% - - 49° 61.9° 56.7° - - 1013.0
5/24 1:50am 2 2 G 4 60° 66% - - 48° 61.9° 56.7° - - 1013.0
5/24 1:40am 25 2 G 4 60° 66% - - 49° 61.9° 56.7° - - 1013.0
5/24 1:30am 19 3 G 6 61° 65% - - 49° 61.9° 56.7° - - 1013.0
5/24 1:20am 27 5 G 8 60° 68% - - 49° 60.5° 56.7° - - 1013.0
5/24 1:10am 33 2 G 6 58° 72% - - 49° 60.5° 56.7° - - 1014.0
5/24 1:00am 68 2 G 2 59° 74% - - 50° 60.5° 56.7° - - 1014.0
5/24 12:50am 32 2 G 3 58° 70% - - 48° 60.5° 56.7° - - 1014.0
5/24 12:40am 91 1 G 2 60° 70% - - 50° 60.5° 56.7° - - 1014.0
5/24 12:30am 57 2 G 3 58° 75% - - 50° 60.4° 56.7° - - 1015.0
5/24 12:20am 350 1 G 2 58° 69% - - 48° 60.4° 56.8° - - 1015.0
5/24 12:10am 323 1 G 4 59° 71% - - 50° 60.4° 58.1° - - 1014.0
5/24 12:00am 14 1 G 2 59° 72% - - 50° 89.2° 56° - - 1014.0
5/23 11:50pm 66 1 G 2 60° 75% - - 52° 89.2° 56° - - 1014.0
5/23 11:40pm 65 2 G 3 59° 76% - - 52° 89.2° 56° - - 1014.0
5/23 11:30pm 94 1 G 3 59° 74% - - 51° 89.2° 56° - - 1015.0
5/23 11:20pm 17 2 G 4 59° 75% - - 51° 89.2° 56° - - 1014.0
5/23 11:10pm 121 0 G 2 60° 73% - - 52° 89.2° 56° - - 1014.0
5/23 11:00pm 59 1 G 1 60° 75% - - 52° 89.2° 56° - - 1014.0
5/23 10:50pm 76 1 G 2 59° 76% - - 52° 89.2° 56° - - 1014.0
5/23 10:40pm 10 1 G 2 59° 73% - - 50° 89.2° 56° - - 1015.0
5/23 10:30pm 340 1 G 3 61° 71% - - 51° 89.2° 56° - - 1014.0
5/23 10:20pm 44 1 G 4 60° 71% - - 51° 89.2° 56° - - 1015.0
5/23 10:10pm 13 2 G 5 61° 70% - - 52° 89.2° 56° - - 1014.0
5/23 10:00pm 76 1 G 3 61° 71% - - 52° 89.2° 56° - - 1014.0
5/23 9:50pm 60 2 G 3 61° 71% - - 52° 89.2° 56° - - 1014.0
5/23 9:40pm 131 0 G 1 62° 69% - - 51° 89.2° 56° - - 1014.0
5/23 9:30pm 45 2 G 2 61° 70% - - 51° 89.2° 56° - - 1014.0
5/23 9:20pm 37 1 G 2 62° 66% - - 51° 89.2° 56° - - 1014.0
5/23 9:10pm 165 1 G 2 64° 64% - - 51° 89.2° 56° - - 1014.0
5/23 9:00pm 72 1 G 2 64° 63% - - 51° 89.2° 56° - - 1014.0
5/23 8:50pm 36 0 G 1 63° 62% - - 50° 89.2° 56° - - 1014.0
5/23 8:40pm 331 1 G 2 66° 57% - - 50° 89.2° 56° - - 1013.0
5/23 8:30pm 53 2 G 4 67° 55% - - 51° 89.2° 56° - - 1013.0
5/23 8:20pm 80 1 G 3 67° 55% - - 51° 89.2° 56° - - 1013.0
5/23 8:10pm 51 2 G 3 69° 52% - - 50° 89.2° 56° - - 1013.0
5/23 8:00pm 120 1 G 2 71° 49% - - 51° 89.2° 56° - - 1013.0
5/23 7:50pm 150 2 G 3 71° 47% - - 50° 89.2° 56° - - 1012.0
5/23 7:40pm 197 2 G 4 72° 46% - - 50° 89.2° 56° - - 1012.0
5/23 7:30pm 253 4 G 6 74° 43% - - 50° 89.2° 56° - - 1012.0
5/23 7:20pm 231 4 G 6 75° 41% - - 50° 89.2° 56° - - 1012.0
5/23 7:10pm 231 6 G 9 76° 39% - - 50° 89.2° 56° - - 1011.0
5/23 7:00pm 233 7 G 10 78° 38% - - 50° 89.2° 56° - - 1011.0
5/23 6:50pm 248 6 G 9 79° 37% - - 50° 89.2° 56° - - 1011.0
5/23 6:40pm 252 6 G 8 81° 34% - - 49° 89.2° 56° - - 1010.0
5/23 6:30pm 273 4 G 7 82° 29% - - 46° 89.2° 56° - - 1010.0
5/23 6:20pm 291 5 G 7 82° 27% - - 45° 89.2° 56° - - 1010.0
5/23 6:10pm 307 4 G 6 82° 27% - - 45° 89.2° 56° - - 1010.0
5/23 6:00pm 314 4 G 7 82° 27% - - 45° 89.2° 56° - - 1010.0
5/23 5:50pm 330 3 G 6 84° 27% - - 47° 89.2° 56° - - 1010.0
5/23 5:40pm 266 1 G 5 84° 26% - - 45° 89.2° 56° - - 1010.0
5/23 5:30pm 210 2 G 6 84° 25% - - 44° 89.2° 56° - - 1010.0
5/23 5:20pm 220 4 G 8 83° 26% - - 44° 89.2° 56° - - 1010.0
5/23 5:10pm 212 4 G 7 84° 26% - - 45° 89.2° 56° - - 1010.0
5/23 5:00pm 237 4 G 8 83° 27% - - 45° 89.2° 56° - - 1011.0
5/23 4:50pm 220 3 G 7 83° 28% - - 46° 89.2° 56° - - 1011.0
5/23 4:40pm 222 3 G 7 82° 32% - - 49° 89.2° 56° - - 1011.0
5/23 4:30pm 237 5 G 9 81° 36% - - 51° 89.2° 56° - - 1011.0
5/23 4:20pm 221 6 G 10 81° 33% - - 49° 89.2° 56° - - 1011.0
5/23 4:10pm 221 7 G 11 80° 32% - - 48° 89.2° 56° - - 1012.0
5/23 4:00pm 224 8 G 11 80° 32% - - 48° 89.2° 56° - - 1012.0
5/23 3:50pm 244 8 G 13 79° 34% - - 48° 89.2° 56° - - 1012.0
5/23 3:40pm 236 9 G 13 79° 39% - - 52° 89.2° 56° - - 1012.0
5/23 3:30pm 255 10 G 15 79° 38% - - 51° 89.2° 56° - - 1012.0
5/23 3:20pm 236 8 G 15 79° 40% - - 53° 89.2° 56° - - 1012.0
5/23 3:10pm 240 9 G 15 79° 41% - - 54° 89.2° 56° - - 1012.0
5/23 3:00pm 238 10 G 15 79° 40% - - 53° 89.2° 56° - - 1012.0
5/23 2:50pm 237 10 G 16 79° 41% - - 54° 89.2° 56° - - 1012.0
5/23 2:40pm 241 10 G 14 80° 40% - - 53° 89.2° 56° - - 1012.0
5/23 2:30pm 247 10 G 14 80° 40% - - 54° 89.2° 56° - - 1012.0
5/23 2:20pm 241 9 G 13 82° 38% - - 54° 89.2° 56° - - 1011.0
5/23 2:10pm 233 9 G 13 82° 37% - - 53° 89.2° 56° - - 1011.0
5/23 2:00pm 230 9 G 14 82° 36% - - 53° 89.2° 56° - - 1011.0
5/23 1:50pm 222 8 G 14 84° 33% - - 52° 89.2° 56° - - 1011.0
5/23 1:40pm 225 7 G 11 83° 33% - - 51° 89.2° 56° - - 1011.0
5/23 1:30pm 228 8 G 11 83° 34% - - 52° 89.2° 56° - - 1011.0
5/23 1:20pm 237 8 G 14 83° 33% - - 51° 89.2° 56° - - 1011.0
5/23 1:10pm 239 10 G 15 85° 30% - - 50° 89.2° 56° - - 1011.0
5/23 1:00pm 258 8 G 13 85° 28% - - 48° 89.2° 56° - - 1011.0
5/23 12:50pm 250 8 G 14 85° 26% - - 47° 89.2° 56° - - 1011.0
5/23 12:40pm 249 11 G 17 86° 25% - - 45° 89.2° 56° - - 1011.0
5/23 12:30pm 240 8 G 13 87° 19% - - 39° 89.2° 56° - - 1010.0
5/23 12:20pm 249 9 G 13 87° 18% - - 38° 89.2° 56° - - 1011.0
5/23 12:10pm 249 10 G 17 87° 19% - - 39° 89.2° 56° - - 1011.0
5/23 12:00pm 247 9 G 13 87° 18% - - 39° 89.2° 56° - - 1011.0
5/23 11:50am 242 8 G 13 87° 19% - - 39° 89.2° 56° - - 1011.0
5/23 11:40am 218 9 G 13 88° 19% - - 40° 89.2° 56° - - 1011.0
5/23 11:30am 231 5 G 11 88° 18% - - 39° 89.2° 56° - - 1011.0
5/23 11:20am 212 4 G 8 88° 18% - - 40° 89.2° 56° - - 1011.0
5/23 11:10am 212 6 G 9 87° 20% - - 41° 87.8° 56° - - 1011.0
5/23 11:00am 220 7 G 11 86° 21% - - 42° 87.4° 56° - - 1011.0
5/23 10:50am 214 5 G 10 87° 22% - - 44° 87.4° 56° - - 1011.0
5/23 10:40am 207 4 G 7 86° 23% - - 44° 87.2° 56° - - 1011.0
5/23 10:30am 207 4 G 7 85° 24% - - 45° 87.2° 56° - - 1011.0
5/23 10:20am 223 5 G 7 83° 26% - - 44° 87.2° 56° - - 1012.0
5/23 10:10am 228 6 G 9 82° 26% - - 44° 87.2° 56° - - 1012.0
5/23 10:00am 229 6 G 10 82° 25% - - 43° 87.2° 56° - - 1012.0
5/23 9:50am 230 6 G 9 82° 26% - - 44° 87.2° 56° - - 1012.0
5/23 9:40am 231 7 G 11 84° 25% - - 44° 87.2° 56° - - 1012.0
5/23 9:30am 203 1 G 4 86° 23% - - 44° 87.2° 56° - - 1011.0
5/23 9:20am 6 0 G 1 84° 26% - - 44° 84.8° 56° - - 1012.0
5/23 9:10am 83 1 G 3 82° 29% - - 46° 82.6° 56° - - 1012.0
5/23 9:00am 237 3 G 4 80° 29% - - 45° 80.8° 56° - - 1012.0
5/23 8:50am 226 3 G 5 79° 30% - - 45° 79.9° 56° - - 1012.0
5/23 8:40am 229 4 G 8 78° 30% - - 44° 79.1° 56° - - 1012.0
5/23 8:30am 262 0 G 2 77° 33% - - 46° 78.8° 56° - - 1012.0
5/23 8:20am 66 1 G 2 75° 38% - - 48° 76° 56° - - 1013.0
5/23 8:10am 119 2 G 3 74° 37% - - 46° 75.3° 56° - - 1013.0
5/23 8:00am 77 1 G 2 74° 34% - - 44° 75.3° 56° - - 1013.0
5/23 7:50am 13 1 G 2 72° 35% - - 43° 72.7° 56° - - 1013.0
5/23 7:40am 0 2 G 4 71° 37% - - 44° 71.9° 56° - - 1013.0
5/23 7:30am 48 1 G 4 71° 38% - - 43° 71° 56° - - 1013.0
5/23 7:20am 39 2 G 4 69° 38% - - 42° 70.3° 56° - - 1014.0
5/23 7:10am 77 1 G 4 68° 40% - - 42° 68.6° 56° - - 1014.0
5/23 7:00am 65 1 G 3 64° 42% - - 41° 66.3° 56° - - 1014.0
5/23 6:50am 135 1 G 4 63° 47% - - 43° 64.2° 56° - - 1014.0
5/23 6:40am 155 1 G 3 63° 46% - - 42° 63.5° 56° - - 1014.0
5/23 6:30am 43 1 G 3 60° 49% - - 41° 61.5° 56° - - 1015.0
5/23 6:20am 79 3 G 4 58° 54% - - 41° 61.5° 56° - - 1015.0
5/23 6:10am 119 1 G 3 57° 54% - - 41° 61.5° 56° - - 1015.0
5/23 6:00am 288 1 G 2 57° 53% - - 40° 61.5° 56° - - 1015.0